Time;durP1;ratioP1;P1;durP2;ratioP2;P2;SDS_P1;SDS_P2;PMS_P1;PMS_P2;Temp;Humidity;BMP_temperature;BMP_pressure;BME280_temperature;BME280_humidity;BME280_pressure;Samples;Min_cycle;Max_cycle;Signal;HPM_P1;HPM_P2
2024/02/15 00:00:37;;;;;;;2.50;1.20;;;;;;;;;;5055253;28;20069;-60
2024/02/15 00:03:03;;;;;;;1.92;1.13;;;;;;;;;;5055686;28;20029;-58
2024/02/15 00:05:29;;;;;;;1.52;0.80;;;;;;;;;;5055003;28;20107;-59
2024/02/15 00:07:55;;;;;;;2.08;0.63;;;;;;;;;;5055367;28;20057;-58
2024/02/15 00:10:24;;;;;;;1.20;0.50;;;;;;;;;;5055577;28;20032;-59
2024/02/15 00:12:51;;;;;;;2.47;0.93;;;;;;;;;;5054974;28;20025;-58
2024/02/15 00:15:17;;;;;;;2.22;1.00;;;;;;;;;;5055581;28;20037;-58
2024/02/15 00:17:46;;;;;;;1.77;0.63;;;;;;;;;;5055127;28;20033;-58
2024/02/15 00:20:12;;;;;;;1.17;0.65;;;;;;;;;;5054944;28;20033;-58
2024/02/15 00:22:41;;;;;;;1.23;0.75;;;;;;;;;;5055302;28;20100;-59
2024/02/15 00:25:08;;;;;;;2.42;1.00;;;;;;;;;;5055342;28;20044;-59
2024/02/15 00:27:35;;;;;;;2.60;1.15;;;;;;;;;;5054903;28;20116;-58
2024/02/15 00:30:01;;;;;;;1.90;0.70;;;;;;;;;;5055392;28;20036;-59
2024/02/15 00:32:27;;;;;;;1.85;0.70;;;;;;;;;;5054924;28;20037;-59
2024/02/15 00:34:53;;;;;;;2.85;0.95;;;;;;;;;;5054793;28;20366;-59
2024/02/15 00:37:19;;;;;;;2.58;1.17;;;;;;;;;;5054797;28;20367;-59
2024/02/15 00:39:45;;;;;;;1.83;0.90;;;;;;;;;;5055574;28;20071;-58
2024/02/15 00:42:11;;;;;;;2.63;1.20;;;;;;;;;;5054725;28;20470;-59
2024/02/15 00:44:37;;;;;;;2.28;1.05;;;;;;;;;;5054384;28;20036;-58
2024/02/15 00:47:03;;;;;;;1.15;0.60;;;;;;;;;;5055468;28;20431;-58
2024/02/15 00:49:29;;;;;;;3.58;0.80;;;;;;;;;;5054692;28;20459;-58
2024/02/15 00:51:55;;;;;;;1.48;0.65;;;;;;;;;;5054242;28;20025;-59
2024/02/15 00:54:22;;;;;;;2.20;1.00;;;;;;;;;;5054441;28;20028;-58
2024/02/15 00:56:48;;;;;;;1.20;0.55;;;;;;;;;;5020726;28;984186;-59
2024/02/15 00:59:14;;;;;;;1.67;0.88;;;;;;;;;;5055243;28;20029;-58
2024/02/15 01:01:40;;;;;;;2.38;0.77;;;;;;;;;;5054752;28;20033;-59
2024/02/15 01:04:06;;;;;;;2.05;1.00;;;;;;;;;;5055773;28;20344;-59
2024/02/15 01:06:33;;;;;;;2.28;1.02;;;;;;;;;;5054859;28;20025;-59
2024/02/15 01:09:01;;;;;;;2.75;0.90;;;;;;;;;;5055641;28;20355;-59
2024/02/15 01:11:28;;;;;;;1.65;0.77;;;;;;;;;;5055720;28;20029;-58
2024/02/15 01:13:54;;;;;;;2.60;0.82;;;;;;;;;;5055921;28;20359;-58
2024/02/15 01:16:21;;;;;;;1.80;0.75;;;;;;;;;;5055003;28;20027;-59
2024/02/15 01:18:47;;;;;;;1.50;0.90;;;;;;;;;;5055634;28;20065;-59
2024/02/15 01:21:13;;;;;;;1.55;0.75;;;;;;;;;;5054976;28;20076;-58
2024/02/15 01:23:39;;;;;;;1.85;0.57;;;;;;;;;;5054896;28;20438;-59
2024/02/15 01:26:05;;;;;;;1.33;0.88;;;;;;;;;;5054349;28;20079;-59
2024/02/15 01:28:32;;;;;;;1.70;0.82;;;;;;;;;;5055257;28;20045;-59
2024/02/15 01:30:58;;;;;;;1.67;0.75;;;;;;;;;;5055678;28;20086;-59
2024/02/15 01:33:24;;;;;;;1.38;0.77;;;;;;;;;;5054853;28;20459;-57
2024/02/15 01:35:49;;;;;;;1.08;0.52;;;;;;;;;;5054529;28;20085;-58
2024/02/15 01:38:15;;;;;;;1.10;0.65;;;;;;;;;;5054713;28;20367;-59
2024/02/15 01:40:42;;;;;;;1.27;0.52;;;;;;;;;;5054945;28;20032;-58
2024/02/15 01:43:08;;;;;;;1.95;0.90;;;;;;;;;;5055142;28;20370;-57
2024/02/15 01:45:34;;;;;;;1.55;0.80;;;;;;;;;;5054413;28;20497;-59
2024/02/15 01:48:00;;;;;;;1.80;0.80;;;;;;;;;;5054497;28;20021;-59
2024/02/15 01:50:26;;;;;;;1.98;0.75;;;;;;;;;;5054084;28;20025;-59
2024/02/15 01:52:57;;;;;;;3.10;0.85;;;;;;;;;;5054153;28;20033;-58
2024/02/15 01:55:22;;;;;;;;;;;;;;;;;;5054859;28;20025;-59
2024/02/15 01:57:49;;;;;;;1.60;0.82;;;;;;;;;;5054950;28;19916;-58
2024/02/15 02:00:19;;;;;;;2.30;1.40;;;;;;;;;;5054793;28;20056;-59
2024/02/15 02:02:45;;;;;;;1.98;1.20;;;;;;;;;;5055006;28;20426;-59
2024/02/15 02:05:11;;;;;;;1.63;0.95;;;;;;;;;;5054038;28;20071;-58
2024/02/15 02:07:38;;;;;;;1.80;0.73;;;;;;;;;;5054117;28;20036;-57
2024/02/15 02:10:04;;;;;;;2.20;1.30;;;;;;;;;;5054477;28;20040;-59
2024/02/15 02:12:30;;;;;;;1.70;0.85;;;;;;;;;;5053881;28;20032;-58
2024/02/15 02:14:56;;;;;;;6.03;1.40;;;;;;;;;;5054427;28;20032;-59
2024/02/15 02:17:23;;;;;;;1.25;0.70;;;;;;;;;;5052646;28;20078;-58
2024/02/15 02:19:50;;;;;;;2.15;1.10;;;;;;;;;;5054590;28;20414;-59
2024/02/15 02:22:17;;;;;;;3.45;1.20;;;;;;;;;;5053853;28;20025;-59
2024/02/15 02:24:55;;;;;;;1.95;1.40;;;;;;;;;;5053858;28;20441;-58
2024/02/15 02:27:21;;;;;;;1.55;0.80;;;;;;;;;;5053936;28;20037;-58
2024/02/15 02:29:47;;;;;;;1.48;0.75;;;;;;;;;;5054470;28;20450;-59
2024/02/15 02:32:13;;;;;;;2.42;1.05;;;;;;;;;;5053598;28;20040;-57
2024/02/15 02:34:40;;;;;;;1.55;1.00;;;;;;;;;;5053836;28;20036;-59
2024/02/15 02:37:07;;;;;;;3.50;1.23;;;;;;;;;;5053736;28;20104;-59
2024/02/15 02:39:33;;;;;;;1.60;0.80;;;;;;;;;;5053766;28;20047;-59
2024/02/15 02:41:59;;;;;;;3.33;1.13;;;;;;;;;;5054003;28;20028;-58
2024/02/15 02:44:25;;;;;;;5.32;1.20;;;;;;;;;;5053629;28;20029;-59
2024/02/15 02:46:51;;;;;;;2.42;1.13;;;;;;;;;;5053316;28;20482;-58
2024/02/15 02:49:17;;;;;;;2.20;1.25;;;;;;;;;;5053638;28;20032;-58
2024/02/15 02:51:43;;;;;;;1.80;0.90;;;;;;;;;;5053599;28;20091;-59
2024/02/15 02:54:09;;;;;;;2.25;1.10;;;;;;;;;;5054156;28;20075;-59
2024/02/15 02:56:35;;;;;;;2.10;0.95;;;;;;;;;;5053775;28;20120;-59
2024/02/15 02:59:01;;;;;;;1.27;0.80;;;;;;;;;;5053572;28;20115;-58
2024/02/15 03:01:27;;;;;;;2.38;1.13;;;;;;;;;;5053557;28;20497;-58
2024/02/15 03:03:55;;;;;;;1.67;0.95;;;;;;;;;;5056365;28;20025;-58
2024/02/15 03:06:21;;;;;;;1.88;0.90;;;;;;;;;;5057660;28;20486;-58
2024/02/15 03:08:47;;;;;;;1.70;0.73;;;;;;;;;;5058154;28;20033;-59
2024/02/15 03:11:17;;;;;;;2.22;1.08;;;;;;;;;;5057275;28;20052;-59
2024/02/15 03:13:44;;;;;;;3.38;1.05;;;;;;;;;;5057454;28;20079;-58
2024/02/15 03:16:10;;;;;;;1.58;0.85;;;;;;;;;;5057420;28;20029;-58
2024/02/15 03:18:35;;;;;;;2.38;1.13;;;;;;;;;;5057420;28;20028;-59
2024/02/15 03:21:01;;;;;;;2.83;1.38;;;;;;;;;;5057225;28;20048;-59
2024/02/15 03:23:28;;;;;;;2.95;1.17;;;;;;;;;;5056931;28;20025;-58
2024/02/15 03:25:55;;;;;;;4.13;0.88;;;;;;;;;;5057652;28;20120;-59
2024/02/15 03:28:22;;;;;;;2.65;1.20;;;;;;;;;;5057745;28;20083;-58
2024/02/15 03:30:50;;;;;;;1.63;1.10;;;;;;;;;;5057682;28;20021;-57
2024/02/15 03:33:16;;;;;;;3.63;1.15;;;;;;;;;;5057070;28;20093;-59
2024/02/15 03:35:42;;;;;;;3.45;1.00;;;;;;;;;;5055272;28;20091;-59
2024/02/15 03:38:08;;;;;;;2.33;1.00;;;;;;;;;;5056952;28;20033;-58
2024/02/15 03:40:34;;;;;;;6.15;1.40;;;;;;;;;;5057281;28;20021;-58
2024/02/15 03:43:00;;;;;;;1.98;1.20;;;;;;;;;;5057432;28;20017;-58
2024/02/15 03:45:26;;;;;;;1.90;0.90;;;;;;;;;;5056943;28;20055;-58
2024/02/15 03:47:52;;;;;;;2.58;1.05;;;;;;;;;;5057209;28;20450;-58
2024/02/15 03:50:18;;;;;;;2.55;1.33;;;;;;;;;;5057114;28;20367;-58
2024/02/15 03:52:44;;;;;;;1.50;0.93;;;;;;;;;;5056707;28;20027;-58
2024/02/15 03:55:10;;;;;;;2.15;1.05;;;;;;;;;;5056710;28;20065;-58
2024/02/15 03:57:43;;;;;;;4.05;1.17;;;;;;;;;;5057286;28;20080;-58
2024/02/15 04:00:11;;;;;;;3.33;1.38;;;;;;;;;;5056266;28;20037;-58
2024/02/15 04:02:38;;;;;;;1.70;0.93;;;;;;;;;;5056548;28;20422;-58
2024/02/15 04:05:04;;;;;;;2.90;1.30;;;;;;;;;;5056454;28;20128;-58
2024/02/15 04:07:31;;;;;;;2.63;1.70;;;;;;;;;;5056315;28;20036;-58
2024/02/15 04:09:59;;;;;;;3.28;1.08;;;;;;;;;;5055495;28;20043;-58
2024/02/15 04:12:26;;;;;;;2.55;1.02;;;;;;;;;;5056228;28;20352;-58
2024/02/15 04:14:53;;;;;;;2.08;0.98;;;;;;;;;;5055890;28;20037;-58
2024/02/15 04:17:21;;;;;;;3.33;1.15;;;;;;;;;;5056216;28;20485;-58
2024/02/15 04:19:47;;;;;;;4.05;1.40;;;;;;;;;;5056088;28;20060;-58
2024/02/15 04:22:16;;;;;;;1.88;1.10;;;;;;;;;;5055574;28;20032;-58
2024/02/15 04:24:42;;;;;;;2.72;1.10;;;;;;;;;;5055446;28;20356;-58
2024/02/15 04:27:08;;;;;;;2.85;1.20;;;;;;;;;;5056413;28;20144;-58
2024/02/15 04:29:34;;;;;;;1.83;0.80;;;;;;;;;;5056588;28;20166;-58
2024/02/15 04:32:00;;;;;;;2.78;1.42;;;;;;;;;;5055986;28;20029;-58
2024/02/15 04:34:26;;;;;;;4.03;1.23;;;;;;;;;;5056010;28;20035;-59
2024/02/15 04:36:59;;;;;;;2.13;0.98;;;;;;;;;;5055549;28;20021;-58
2024/02/15 04:39:27;;;;;;;1.58;0.88;;;;;;;;;;5056498;28;20371;-58
2024/02/15 04:41:55;;;;;;;3.20;1.30;;;;;;;;;;5055761;28;20029;-58
2024/02/15 04:44:21;;;;;;;2.85;1.50;;;;;;;;;;5056238;28;20425;-58
2024/02/15 04:46:49;;;;;;;3.47;1.52;;;;;;;;;;5055699;28;20037;-58
2024/02/15 04:49:15;;;;;;;2.38;1.08;;;;;;;;;;5054808;28;20463;-58
2024/02/15 04:51:41;;;;;;;1.90;1.05;;;;;;;;;;5056136;28;20055;-58
2024/02/15 04:54:07;;;;;;;1.65;0.90;;;;;;;;;;5055787;28;20029;-58
2024/02/15 04:56:35;;;;;;;2.28;1.02;;;;;;;;;;5056196;28;20069;-58
2024/02/15 04:59:02;;;;;;;1.88;0.77;;;;;;;;;;5055472;28;20479;-58
2024/02/15 05:01:29;;;;;;;2.00;1.00;;;;;;;;;;5055461;28;20471;-58
2024/02/15 05:03:55;;;;;;;2.97;1.08;;;;;;;;;;5055067;28;20470;-58
2024/02/15 05:06:21;;;;;;;2.40;1.10;;;;;;;;;;5055281;28;20374;-58
2024/02/15 05:08:47;;;;;;;1.60;0.90;;;;;;;;;;5056018;28;20116;-58
2024/02/15 05:11:19;;;;;;;2.00;1.13;;;;;;;;;;5055693;28;20478;-58
2024/02/15 05:13:46;;;;;;;5.10;1.98;;;;;;;;;;5055843;28;20036;-58
2024/02/15 05:16:12;;;;;;;1.60;1.02;;;;;;;;;;5054785;28;20065;-58
2024/02/15 05:18:39;;;;;;;3.03;1.23;;;;;;;;;;5055760;28;20497;-58
2024/02/15 05:21:09;;;;;;;3.38;1.70;;;;;;;;;;5054983;28;20052;-58
2024/02/15 05:23:35;;;;;;;2.13;1.15;;;;;;;;;;5055031;28;20029;-58
2024/02/15 05:26:01;;;;;;;4.60;1.73;;;;;;;;;;5054138;28;20037;-58
2024/02/15 05:28:27;;;;;;;2.00;1.30;;;;;;;;;;5055436;28;20032;-60
2024/02/15 05:31:11;;;;;;;2.13;1.00;;;;;;;;;;5054883;28;20029;-58
2024/02/15 05:33:43;;;;;;;2.42;1.45;;;;;;;;;;5054528;28;20021;-57
2024/02/15 05:36:10;;;;;;;2.13;1.02;;;;;;;;;;5054676;28;20111;-58
2024/02/15 05:38:36;;;;;;;3.58;1.20;;;;;;;;;;5055247;28;20100;-59
2024/02/15 05:41:07;;;;;;;1.70;0.98;;;;;;;;;;5055161;28;20522;-59
2024/02/15 05:43:33;;;;;;;2.70;1.30;;;;;;;;;;5055134;28;20066;-59
2024/02/15 05:45:59;;;;;;;1.92;1.00;;;;;;;;;;5054775;28;20398;-59
2024/02/15 05:48:25;;;;;;;3.55;1.65;;;;;;;;;;5054354;28;20074;-58
2024/02/15 05:50:54;;;;;;;1.60;0.70;;;;;;;;;;5054941;28;20108;-59
2024/02/15 05:53:20;;;;;;;2.47;1.10;;;;;;;;;;5054311;28;20029;-58
2024/02/15 05:55:46;;;;;;;3.40;1.35;;;;;;;;;;5054426;28;20060;-58
2024/02/15 05:58:13;;;;;;;4.03;1.50;;;;;;;;;;5054782;28;20025;-57
2024/02/15 06:00:40;;;;;;;2.42;1.23;;;;;;;;;;5054014;28;20081;-58
2024/02/15 06:03:06;;;;;;;2.58;1.48;;;;;;;;;;5055029;28;20032;-59
2024/02/15 06:05:32;;;;;;;2.92;1.17;;;;;;;;;;5054064;28;20119;-59
2024/02/15 06:07:59;;;;;;;2.40;1.23;;;;;;;;;;5054535;28;20032;-59
2024/02/15 06:10:25;;;;;;;3.72;1.63;;;;;;;;;;5054131;28;20364;-59
2024/02/15 06:12:51;;;;;;;3.90;1.83;;;;;;;;;;5054311;28;20463;-58
2024/02/15 06:15:17;;;;;;;2.40;1.30;;;;;;;;;;5054098;28;20025;-58
2024/02/15 06:17:46;;;;;;;2.30;1.25;;;;;;;;;;5054774;28;20051;-58
2024/02/15 06:20:17;;;;;;;3.10;1.45;;;;;;;;;;5053976;28;20025;-58
2024/02/15 06:22:43;;;;;;;2.70;1.38;;;;;;;;;;5054601;28;20037;-59
2024/02/15 06:25:10;;;;;;;1.80;1.20;;;;;;;;;;5053846;28;20451;-58
2024/02/15 06:27:40;;;;;;;2.25;1.10;;;;;;;;;;5053929;28;20048;-59
2024/02/15 06:39:38;;;;;;;2.80;1.33;;;;;;;;;;5053935;28;20078;-58
2024/02/15 06:41:07;;;;;;;2.30;1.25;;;;;;;;;;5054187;28;20043;-58
2024/02/15 06:43:34;;;;;;;4.93;1.23;;;;;;;;;;5053637;28;20017;-58
2024/02/15 06:46:01;;;;;;;4.15;1.33;;;;;;;;;;5054155;28;20362;-58
2024/02/15 06:48:27;;;;;;;2.17;1.20;;;;;;;;;;5053671;28;20033;-58
2024/02/15 06:50:52;;;;;;;2.92;1.63;;;;;;;;;;5053263;28;20036;-57
2024/02/15 06:53:20;;;;;;;2.30;1.65;;;;;;;;;;5054160;28;20074;-58
2024/02/15 06:55:48;;;;;;;2.13;1.27;;;;;;;;;;5053483;28;20044;-57
2024/02/15 06:58:15;;;;;;;2.72;1.15;;;;;;;;;;5053596;28;20027;-58
2024/02/15 07:00:42;;;;;;;2.60;1.63;;;;;;;;;;5053512;28;20021;-58
2024/02/15 07:03:08;;;;;;;2.22;1.25;;;;;;;;;;5054061;28;20025;-58
2024/02/15 07:05:34;;;;;;;3.30;1.42;;;;;;;;;;5053443;28;20037;-58
2024/02/15 07:08:00;;;;;;;2.75;1.40;;;;;;;;;;5053905;28;20040;-56
2024/02/15 07:10:26;;;;;;;3.22;1.48;;;;;;;;;;5053153;28;20086;-58
2024/02/15 07:12:52;;;;;;;3.95;2.08;;;;;;;;;;5053396;28;20030;-58
2024/02/15 07:15:18;;;;;;;6.15;1.38;;;;;;;;;;5053707;28;20032;-58
2024/02/15 07:17:44;;;;;;;2.83;1.40;;;;;;;;;;5053277;28;20117;-58
2024/02/15 07:20:17;;;;;;;1.90;1.08;;;;;;;;;;5053847;28;20348;-58
2024/02/15 07:22:43;;;;;;;3.97;2.00;;;;;;;;;;5053238;28;20029;-58
2024/02/15 07:25:10;;;;;;;2.30;1.42;;;;;;;;;;5053279;28;20500;-58
2024/02/15 07:27:36;;;;;;;3.17;1.50;;;;;;;;;;5053223;28;20056;-58
2024/02/15 07:30:03;;;;;;;2.17;1.38;;;;;;;;;;5053790;28;20029;-58
2024/02/15 07:32:31;;;;;;;2.30;1.05;;;;;;;;;;5053721;28;20033;-58
2024/02/15 07:34:57;;;;;;;4.95;1.52;;;;;;;;;;5053323;28;20417;-59
2024/02/15 07:37:26;;;;;;;2.58;1.55;;;;;;;;;;5053998;28;20033;-59
2024/02/15 07:39:51;;;;;;;5.53;1.13;;;;;;;;;;5053108;28;20037;-59
2024/02/15 07:42:17;;;;;;;3.25;1.63;;;;;;;;;;5053209;28;20094;-58
2024/02/15 07:44:43;;;;;;;3.17;1.45;;;;;;;;;;5052723;28;20033;-58
2024/02/15 07:47:10;;;;;;;4.13;1.58;;;;;;;;;;5053102;28;20039;-58
2024/02/15 07:49:36;;;;;;;2.33;1.30;;;;;;;;;;5055943;28;20029;-58
2024/02/15 07:52:04;;;;;;;3.28;1.65;;;;;;;;;;5057244;28;20033;-58
2024/02/15 07:54:30;;;;;;;1.77;1.20;;;;;;;;;;5057433;28;20032;-57
2024/02/15 07:56:58;;;;;;;2.55;1.17;;;;;;;;;;5056673;28;20084;-59
2024/02/15 07:59:24;;;;;;;2.33;1.27;;;;;;;;;;5056866;28;20116;-57
2024/02/15 08:01:50;;;;;;;3.45;1.52;;;;;;;;;;5056421;28;20059;-58
2024/02/15 08:04:20;;;;;;;5.20;1.20;;;;;;;;;;5056346;28;20397;-58
2024/02/15 08:06:48;;;;;;;;;;;;;;;;;;5056844;28;20033;-58
2024/02/15 08:09:17;;;;;;;3.80;1.70;;;;;;;;;;5056869;28;19911;-57
2024/02/15 08:11:43;;;;;;;3.50;1.20;;;;;;;;;;5056271;28;20036;-58
2024/02/15 08:14:10;;;;;;;4.82;1.50;;;;;;;;;;5056294;28;20035;-57
2024/02/15 08:16:39;;;;;;;3.13;1.70;;;;;;;;;;5056451;28;20095;-57
2024/02/15 08:19:05;;;;;;;3.35;1.60;;;;;;;;;;5056612;28;20040;-57
2024/02/15 08:21:35;;;;;;;2.15;1.38;;;;;;;;;;5056472;28;20083;-58
2024/02/15 08:24:05;;;;;;;4.57;1.80;;;;;;;;;;5056771;28;20049;-58
2024/02/15 08:26:31;;;;;;;3.85;1.92;;;;;;;;;;5056743;28;20037;-57
2024/02/15 08:28:57;;;;;;;4.50;1.70;;;;;;;;;;5056310;28;20025;-58
2024/02/15 08:31:24;;;;;;;4.63;2.10;;;;;;;;;;5056064;28;20027;-58
2024/02/15 08:33:50;;;;;;;6.65;1.88;;;;;;;;;;5056410;28;20486;-58
2024/02/15 08:36:15;;;;;;;2.80;1.70;;;;;;;;;;5056406;28;20025;-58
2024/02/15 08:38:41;;;;;;;2.13;1.33;;;;;;;;;;5055712;28;20021;-58
2024/02/15 08:41:11;;;;;;;5.72;1.95;;;;;;;;;;5055878;28;20017;-58
2024/02/15 08:43:39;;;;;;;3.00;1.27;;;;;;;;;;5055904;28;20028;-58
2024/02/15 08:46:06;;;;;;;2.90;1.23;;;;;;;;;;5055950;28;20033;-56
2024/02/15 08:48:32;;;;;;;6.50;1.52;;;;;;;;;;5056006;28;20033;-58
2024/02/15 08:50:58;;;;;;;2.35;1.40;;;;;;;;;;5055620;28;20032;-58
2024/02/15 08:53:24;;;;;;;3.28;1.80;;;;;;;;;;5055715;28;20028;-58
2024/02/15 08:55:52;;;;;;;2.03;1.13;;;;;;;;;;5055507;28;20135;-57
2024/02/15 08:58:19;;;;;;;3.22;1.15;;;;;;;;;;5055506;28;20524;-58
2024/02/15 09:00:45;;;;;;;2.83;1.10;;;;;;;;;;5054238;28;20028;-58
2024/02/15 09:03:12;;;;;;;4.32;1.23;;;;;;;;;;5055560;28;20035;-58
2024/02/15 09:05:37;;;;;;;3.85;1.95;;;;;;;;;;5055245;28;20032;-58
2024/02/15 09:08:04;;;;;;;2.10;1.38;;;;;;;;;;5056031;28;20028;-58
2024/02/15 09:10:30;;;;;;;3.28;1.50;;;;;;;;;;5056151;28;20127;-58
2024/02/15 09:12:57;;;;;;;4.15;1.95;;;;;;;;;;5055814;28;20028;-59
2024/02/15 09:15:23;;;;;;;2.90;1.40;;;;;;;;;;5055295;28;20032;-58
2024/02/15 09:17:49;;;;;;;3.45;2.03;;;;;;;;;;5055784;28;20024;-58
2024/02/15 09:20:18;;;;;;;3.15;2.15;;;;;;;;;;5055360;28;20359;-58
2024/02/15 09:22:50;;;;;;;2.25;1.48;;;;;;;;;;5055610;28;20037;-58
2024/02/15 09:25:17;;;;;;;2.55;1.48;;;;;;;;;;5054914;28;20036;-58
2024/02/15 09:27:44;;;;;;;5.20;2.55;;;;;;;;;;5055595;28;20111;-58
2024/02/15 09:30:10;;;;;;;4.13;2.08;;;;;;;;;;5055218;28;20028;-58
2024/02/15 09:32:36;;;;;;;3.30;1.60;;;;;;;;;;5054855;28;20083;-58
2024/02/15 09:35:03;;;;;;;4.22;2.10;;;;;;;;;;5054709;28;20029;-57
2024/02/15 09:37:29;;;;;;;3.15;1.90;;;;;;;;;;5055051;28;20025;-59
2024/02/15 09:39:55;;;;;;;7.13;1.95;;;;;;;;;;5055151;28;20025;-57
2024/02/15 09:42:23;;;;;;;3.72;2.47;;;;;;;;;;5054501;28;20028;-58
2024/02/15 09:44:51;;;;;;;4.72;2.35;;;;;;;;;;5055307;28;20036;-58
2024/02/15 09:47:19;;;;;;;2.78;1.65;;;;;;;;;;5054497;28;20041;-59
2024/02/15 09:49:45;;;;;;;2.40;1.60;;;;;;;;;;5055202;28;20068;-59
2024/02/15 09:52:17;;;;;;;2.63;1.70;;;;;;;;;;5054939;28;20056;-59
2024/02/15 09:54:44;;;;;;;2.28;1.33;;;;;;;;;;5054887;28;20451;-58
2024/02/15 09:57:13;;;;;;;4.07;1.70;;;;;;;;;;5054367;28;20044;-59
2024/02/15 09:59:40;;;;;;;3.90;1.85;;;;;;;;;;5054707;28;20029;-58
2024/02/15 10:02:13;;;;;;;2.20;1.50;;;;;;;;;;5054140;28;20079;-58
2024/02/15 10:04:42;;;;;;;3.30;1.60;;;;;;;;;;5054130;28;20039;-59
2024/02/15 10:07:08;;;;;;;2.55;1.42;;;;;;;;;;5054128;28;20025;-58
2024/02/15 10:09:36;;;;;;;3.08;1.33;;;;;;;;;;5054947;28;20415;-59
2024/02/15 10:12:02;;;;;;;2.55;1.40;;;;;;;;;;5053727;28;20146;-59
2024/02/15 10:14:29;;;;;;;2.90;1.30;;;;;;;;;;5054059;28;20032;-59
2024/02/15 10:17:05;;;;;;;3.50;1.30;;;;;;;;;;5054661;28;20079;-59
2024/02/15 10:19:34;;;;;;;4.88;1.45;;;;;;;;;;5054287;28;20029;-59
2024/02/15 10:22:06;;;;;;;5.30;1.60;;;;;;;;;;5053769;28;20055;-59
2024/02/15 10:24:32;;;;;;;3.10;1.50;;;;;;;;;;5053858;28;20031;-59
2024/02/15 10:27:06;;;;;;;2.75;1.40;;;;;;;;;;5053962;28;20029;-59
2024/02/15 10:29:33;;;;;;;2.35;1.25;;;;;;;;;;5054410;28;20052;-59
2024/02/15 10:32:00;;;;;;;2.20;1.50;;;;;;;;;;5054635;28;20031;-58
2024/02/15 10:34:30;;;;;;;4.10;1.60;;;;;;;;;;5053749;28;20091;-59
2024/02/15 10:36:57;;;;;;;2.63;0.80;;;;;;;;;;5053653;28;20024;-59
2024/02/15 10:39:24;;;;;;;2.25;1.20;;;;;;;;;;5054053;28;20244;-56
2024/02/15 10:41:51;;;;;;;1.70;0.90;;;;;;;;;;5054680;28;20541;-58
2024/02/15 10:44:18;;;;;;;2.38;1.20;;;;;;;;;;5053537;28;20024;-58
2024/02/15 10:46:53;;;;;;;3.22;1.33;;;;;;;;;;5054196;28;20375;-58
2024/02/15 10:49:20;;;;;;;3.45;1.25;;;;;;;;;;5054052;28;20048;-59
2024/02/15 10:51:50;;;;;;;1.83;1.08;;;;;;;;;;5054090;28;20378;-58
2024/02/15 10:54:19;;;;;;;2.10;1.05;;;;;;;;;;5053552;28;20029;-59
2024/02/15 10:56:51;;;;;;;2.97;1.50;;;;;;;;;;5053152;28;20506;-58
2024/02/15 10:59:18;;;;;;;2.72;0.90;;;;;;;;;;5053847;28;20033;-56
2024/02/15 11:01:45;;;;;;;3.10;1.20;;;;;;;;;;5053506;28;20032;-57
2024/02/15 11:04:14;;;;;;;1.48;0.73;;;;;;;;;;5053946;28;20359;-56
2024/02/15 11:06:44;;;;;;;2.72;0.60;;;;;;;;;;5053813;28;20068;-57
2024/02/15 11:09:11;;;;;;;1.58;0.63;;;;;;;;;;5054182;28;20360;-57
2024/02/15 11:11:38;;;;;;;2.03;1.08;;;;;;;;;;5053045;28;20032;-57
2024/02/15 11:14:23;;;;;;;2.10;0.60;;;;;;;;;;5053833;28;20017;-57
2024/02/15 11:16:50;;;;;;;3.38;1.00;;;;;;;;;;5053706;28;20029;-58
2024/02/15 11:19:35;;;;;;;1.88;0.98;;;;;;;;;;5053562;28;20033;-57
2024/02/15 11:22:06;;;;;;;2.00;0.90;;;;;;;;;;5053513;28;20474;-57
2024/02/15 11:24:35;;;;;;;1.58;0.80;;;;;;;;;;5055973;28;20053;-57
2024/02/15 11:27:05;;;;;;;1.95;1.02;;;;;;;;;;5057164;28;20040;-57
2024/02/15 11:29:54;;;;;;;0.98;0.43;;;;;;;;;;5057210;28;20040;-57
2024/02/15 11:32:44;;;;;;;1.67;0.88;;;;;;;;;;5057698;28;20029;-57
2024/02/15 11:35:16;;;;;;;0.95;0.43;;;;;;;;;;5057547;28;20041;-58
2024/02/15 11:37:55;;;;;;;1.98;0.90;;;;;;;;;;5057461;28;20029;-58
2024/02/15 11:40:28;;;;;;;1.98;0.88;;;;;;;;;;5057364;28;20112;-58
2024/02/15 11:43:01;;;;;;;2.30;0.98;;;;;;;;;;5057312;28;20021;-59
2024/02/15 11:45:38;;;;;;;4.28;1.10;;;;;;;;;;5056741;28;20561;-59
2024/02/15 11:48:10;;;;;;;2.35;0.90;;;;;;;;;;5057218;28;20029;-59
2024/02/15 11:50:36;;;;;;;4.15;1.20;;;;;;;;;;5057246;28;20335;-59
2024/02/15 11:53:09;;;;;;;2.97;0.90;;;;;;;;;;5056699;28;20013;-59
2024/02/15 11:55:35;;;;;;;1.67;0.63;;;;;;;;;;5057132;28;20083;-59
2024/02/15 11:58:18;;;;;;;3.17;0.70;;;;;;;;;;5057173;28;20048;-59
2024/02/15 12:20:01;;;;;;;1.08;0.60;;;;;;;;;;5056489;28;20536;-59
2024/02/15 12:22:35;;;;;;;1.67;0.68;;;;;;;;;;5055845;28;20470;-59
2024/02/15 12:25:11;;;;;;;1.58;0.50;;;;;;;;;;5056252;28;20462;-59
2024/02/15 12:27:40;;;;;;;2.97;0.60;;;;;;;;;;5056565;28;20060;-59
2024/02/15 12:30:08;;;;;;;1.15;0.57;;;;;;;;;;5056228;28;20033;-59
2024/02/15 12:32:35;;;;;;;2.92;0.88;;;;;;;;;;5055507;28;20497;-60
2024/02/15 12:35:19;;;;;;;2.80;1.10;;;;;;;;;;5055583;28;20029;-59
2024/02/15 12:37:45;;;;;;;1.42;0.50;;;;;;;;;;5056396;28;20032;-59
2024/02/15 12:40:16;;;;;;;1.92;0.50;;;;;;;;;;5055587;28;20371;-59
2024/02/15 12:42:46;;;;;;;1.65;0.88;;;;;;;;;;5056548;28;20032;-59
2024/02/15 12:45:32;;;;;;;2.63;0.77;;;;;;;;;;5055569;28;20065;-59
2024/02/15 12:47:58;;;;;;;2.03;0.60;;;;;;;;;;5056235;28;20036;-59
2024/02/15 12:50:27;;;;;;;1.42;0.80;;;;;;;;;;5056164;28;20375;-59
2024/02/15 12:52:55;;;;;;;2.13;0.57;;;;;;;;;;5056280;28;20051;-59
2024/02/15 12:55:22;;;;;;;1.67;0.63;;;;;;;;;;5056326;28;20029;-59
2024/02/15 12:57:51;;;;;;;1.13;0.50;;;;;;;;;;5055837;28;20045;-59
2024/02/15 13:00:18;;;;;;;1.75;0.60;;;;;;;;;;5055467;28;20025;-59
2024/02/15 13:02:45;;;;;;;3.08;1.00;;;;;;;;;;5055378;28;20021;-59
2024/02/15 13:05:11;;;;;;;1.38;0.55;;;;;;;;;;5055362;28;20029;-59
2024/02/15 13:07:38;;;;;;;1.55;0.57;;;;;;;;;;5055426;28;20352;-59
2024/02/15 13:10:08;;;;;;;1.77;0.70;;;;;;;;;;5055184;28;20036;-60
2024/02/15 13:12:34;;;;;;;1.42;0.55;;;;;;;;;;5055185;28;20075;-59
2024/02/15 13:15:21;;;;;;;2.70;0.63;;;;;;;;;;5055256;28;20071;-59
2024/02/15 13:17:53;;;;;;;1.95;0.60;;;;;;;;;;5055059;28;20352;-59
2024/02/15 13:20:20;;;;;;;1.75;0.55;;;;;;;;;;5055505;28;20025;-59
2024/02/15 13:22:49;;;;;;;1.80;0.82;;;;;;;;;;5055477;28;20032;-59
2024/02/15 13:25:21;;;;;;;1.27;0.50;;;;;;;;;;5054743;28;20078;-59
2024/02/15 13:27:47;;;;;;;1.30;0.50;;;;;;;;;;5055557;28;20032;-59
2024/02/15 13:30:13;;;;;;;1.50;0.60;;;;;;;;;;5054920;28;20021;-59
2024/02/15 13:32:43;;;;;;;4.63;0.73;;;;;;;;;;5054646;28;20025;-59
2024/02/15 13:35:13;;;;;;;1.13;0.47;;;;;;;;;;5055424;28;20478;-59
2024/02/15 13:37:42;;;;;;;1.53;0.60;;;;;;;;;;5055040;28;20112;-59
2024/02/15 13:40:14;;;;;;;0.95;0.57;;;;;;;;;;5054473;28;20074;-59
2024/02/15 13:42:42;;;;;;;0.82;0.40;;;;;;;;;;5054815;28;20086;-59
2024/02/15 13:45:09;;;;;;;1.20;0.70;;;;;;;;;;5054867;28;20033;-59
2024/02/15 13:47:35;;;;;;;3.33;0.75;;;;;;;;;;5053677;28;20485;-59
2024/02/15 13:50:02;;;;;;;3.42;0.75;;;;;;;;;;5054786;28;20104;-59
2024/02/15 13:52:28;;;;;;;3.70;0.90;;;;;;;;;;5054753;28;20033;-59
2024/02/15 13:54:54;;;;;;;2.33;0.70;;;;;;;;;;5054403;28;20028;-59
2024/02/15 13:57:20;;;;;;;3.60;1.25;;;;;;;;;;5054305;28;20371;-59
2024/02/15 13:59:46;;;;;;;1.25;0.63;;;;;;;;;;5054915;28;20428;-59
2024/02/15 14:02:12;;;;;;;2.60;1.08;;;;;;;;;;5054246;28;20450;-59
2024/02/15 14:04:38;;;;;;;1.52;0.80;;;;;;;;;;5054183;28;20053;-59
2024/02/15 14:07:04;;;;;;;0.98;0.47;;;;;;;;;;5054141;28;20370;-59
2024/02/15 14:09:30;;;;;;;2.28;1.08;;;;;;;;;;5054463;28;20021;-59
2024/02/15 14:11:57;;;;;;;1.35;0.52;;;;;;;;;;5054099;28;20021;-59
2024/02/15 14:14:23;;;;;;;1.60;0.80;;;;;;;;;;5053829;28;20113;-59
2024/02/15 14:16:49;;;;;;;3.55;0.80;;;;;;;;;;5054089;28;20061;-59
2024/02/15 14:19:15;;;;;;;2.30;1.20;;;;;;;;;;5054368;28;20021;-59
2024/02/15 14:21:43;;;;;;;3.10;1.55;;;;;;;;;;5053878;28;20021;-59
2024/02/15 14:24:09;;;;;;;1.67;1.00;;;;;;;;;;5054359;28;20033;-59
2024/02/15 14:26:35;;;;;;;2.78;1.27;;;;;;;;;;5053621;28;20047;-59
2024/02/15 14:29:03;;;;;;;3.88;1.77;;;;;;;;;;5054113;28;20028;-59
2024/02/15 14:34:15;;;;;;;3.40;1.15;;;;;;;;;;5053869;28;20032;-59
2024/02/15 14:36:42;;;;;;;2.72;1.30;;;;;;;;;;5054176;28;20024;-59
2024/02/15 14:39:09;;;;;;;4.95;1.88;;;;;;;;;;5054355;28;20100;-60
2024/02/15 14:41:35;;;;;;;2.90;1.85;;;;;;;;;;5053832;28;20083;-59
2024/02/15 14:44:02;;;;;;;3.45;1.73;;;;;;;;;;5054220;28;20490;-59
2024/02/15 14:46:29;;;;;;;2.40;1.40;;;;;;;;;;5053492;28;20029;-59
2024/02/15 14:48:57;;;;;;;3.03;1.63;;;;;;;;;;5053548;28;20510;-59
2024/02/15 14:51:24;;;;;;;2.85;1.02;;;;;;;;;;5053690;28;20124;-59
2024/02/15 14:53:50;;;;;;;2.97;1.00;;;;;;;;;;5053612;28;20463;-59
2024/02/15 14:56:17;;;;;;;2.20;1.40;;;;;;;;;;5053753;28;20067;-59
2024/02/15 14:58:43;;;;;;;2.80;1.35;;;;;;;;;;5056737;28;20035;-59
2024/02/15 15:01:09;;;;;;;2.05;1.00;;;;;;;;;;5057695;28;20096;-59
2024/02/15 15:03:37;;;;;;;4.47;2.00;;;;;;;;;;5058132;28;20025;-59
2024/02/15 15:14:17;;;;;;;3.80;1.27;;;;;;;;;;5057315;28;20060;-59
2024/02/15 15:16:43;;;;;;;2.47;1.30;;;;;;;;;;5057483;28;20029;-59
2024/02/15 15:19:10;;;;;;;5.32;1.60;;;;;;;;;;5058077;28;20033;-59
2024/02/15 15:21:36;;;;;;;3.28;1.27;;;;;;;;;;5057453;28;20036;-59
2024/02/15 15:24:02;;;;;;;1.58;0.95;;;;;;;;;;5057108;28;20025;-59